sensor_id;sensor_type;location;lat;lon;timestamp;temperature;humidity
16247;DHT22;8231;50.866;7.944;2022-09-30T00:01:32;3.90;99.90
16247;DHT22;8231;50.866;7.944;2022-09-30T00:04:01;3.80;99.90
16247;DHT22;8231;50.866;7.944;2022-09-30T00:06:30;3.80;99.90
16247;DHT22;8231;50.866;7.944;2022-09-30T00:09:00;3.90;99.90
16247;DHT22;8231;50.866;7.944;2022-09-30T00:11:30;3.90;99.90
16247;DHT22;8231;50.866;7.944;2022-09-30T00:14:00;3.90;99.90
16247;DHT22;8231;50.866;7.944;2022-09-30T00:16:30;3.90;99.90
16247;DHT22;8231;50.866;7.944;2022-09-30T00:18:58;3.90;99.90
16247;DHT22;8231;50.866;7.944;2022-09-30T00:21:27;3.90;99.90
16247;DHT22;8231;50.866;7.944;2022-09-30T00:23:55;3.90;99.90
16247;DHT22;8231;50.866;7.944;2022-09-30T00:26:25;3.90;99.90
16247;DHT22;8231;50.866;7.944;2022-09-30T00:28:55;3.90;99.90
16247;DHT22;8231;50.866;7.944;2022-09-30T00:31:26;3.90;99.90
16247;DHT22;8231;50.866;7.944;2022-09-30T00:33:55;3.90;99.90
16247;DHT22;8231;50.866;7.944;2022-09-30T00:36:39;3.90;99.90
16247;DHT22;8231;50.866;7.944;2022-09-30T00:39:11;3.90;99.90
16247;DHT22;8231;50.866;7.944;2022-09-30T00:41:42;3.80;99.90
16247;DHT22;8231;50.866;7.944;2022-09-30T00:47:47;3.80;99.90
16247;DHT22;8231;50.866;7.944;2022-09-30T00:50:22;3.80;99.90
16247;DHT22;8231;50.866;7.944;2022-09-30T00:52:54;3.80;99.90
16247;DHT22;8231;50.866;7.944;2022-09-30T00:55:30;3.70;99.90
16247;DHT22;8231;50.866;7.944;2022-09-30T00:58:03;3.70;99.90
16247;DHT22;8231;50.866;7.944;2022-09-30T01:00:32;3.60;99.90
16247;DHT22;8231;50.866;7.944;2022-09-30T01:03:00;3.50;99.90
16247;DHT22;8231;50.866;7.944;2022-09-30T01:05:30;3.50;99.90
16247;DHT22;8231;50.866;7.944;2022-09-30T01:08:00;3.40;99.90
16247;DHT22;8231;50.866;7.944;2022-09-30T01:10:30;3.40;99.90
16247;DHT22;8231;50.866;7.944;2022-09-30T01:12:58;3.30;99.90
16247;DHT22;8231;50.866;7.944;2022-09-30T01:15:38;3.30;99.90
16247;DHT22;8231;50.866;7.944;2022-09-30T01:18:18;3.30;99.90
16247;DHT22;8231;50.866;7.944;2022-09-30T01:21:16;3.40;99.90
16247;DHT22;8231;50.866;7.944;2022-09-30T01:24:21;3.40;99.90
16247;DHT22;8231;50.866;7.944;2022-09-30T01:27:08;3.50;99.90
16247;DHT22;8231;50.866;7.944;2022-09-30T01:30:10;3.50;99.90
16247;DHT22;8231;50.866;7.944;2022-09-30T01:33:08;3.50;99.90
16247;DHT22;8231;50.866;7.944;2022-09-30T01:35:59;3.50;99.90
16247;DHT22;8231;50.866;7.944;2022-09-30T01:38:39;3.40;99.90
16247;DHT22;8231;50.866;7.944;2022-09-30T01:41:13;3.40;99.90
16247;DHT22;8231;50.866;7.944;2022-09-30T01:43:49;3.40;99.90
16247;DHT22;8231;50.866;7.944;2022-09-30T01:46:28;3.40;99.90
16247;DHT22;8231;50.866;7.944;2022-09-30T01:49:06;3.40;99.90
16247;DHT22;8231;50.866;7.944;2022-09-30T01:51:40;3.30;99.90
16247;DHT22;8231;50.866;7.944;2022-09-30T01:54:16;3.30;99.90
16247;DHT22;8231;50.866;7.944;2022-09-30T01:56:48;3.20;99.90
16247;DHT22;8231;50.866;7.944;2022-09-30T01:59:20;3.30;99.90
16247;DHT22;8231;50.866;7.944;2022-09-30T02:01:54;3.30;99.90
16247;DHT22;8231;50.866;7.944;2022-09-30T02:04:33;3.30;99.90
16247;DHT22;8231;50.866;7.944;2022-09-30T02:07:05;3.30;99.90
16247;DHT22;8231;50.866;7.944;2022-09-30T02:09:40;3.30;99.90
16247;DHT22;8231;50.866;7.944;2022-09-30T02:12:13;3.20;99.90
16247;DHT22;8231;50.866;7.944;2022-09-30T02:14:46;3.20;99.90
16247;DHT22;8231;50.866;7.944;2022-09-30T02:17:20;3.20;99.90
16247;DHT22;8231;50.866;7.944;2022-09-30T02:19:53;3.10;99.90
16247;DHT22;8231;50.866;7.944;2022-09-30T02:22:25;3.00;99.90
16247;DHT22;8231;50.866;7.944;2022-09-30T02:24:59;2.90;99.90
16247;DHT22;8231;50.866;7.944;2022-09-30T02:27:31;2.90;99.90
16247;DHT22;8231;50.866;7.944;2022-09-30T02:30:07;2.90;99.90
16247;DHT22;8231;50.866;7.944;2022-09-30T02:32:39;3.00;99.90
16247;DHT22;8231;50.866;7.944;2022-09-30T02:35:18;3.00;99.90
16247;DHT22;8231;50.866;7.944;2022-09-30T02:37:52;3.00;99.90
16247;DHT22;8231;50.866;7.944;2022-09-30T02:40:26;3.00;99.90
16247;DHT22;8231;50.866;7.944;2022-09-30T02:42:56;3.00;99.90
16247;DHT22;8231;50.866;7.944;2022-09-30T02:45:24;2.90;99.90
16247;DHT22;8231;50.866;7.944;2022-09-30T02:48:05;2.90;99.90
16247;DHT22;8231;50.866;7.944;2022-09-30T02:50:42;3.00;99.90
16247;DHT22;8231;50.866;7.944;2022-09-30T02:53:18;2.90;99.90
16247;DHT22;8231;50.866;7.944;2022-09-30T02:56:03;2.90;99.90
16247;DHT22;8231;50.866;7.944;2022-09-30T02:58:35;2.90;99.90
16247;DHT22;8231;50.866;7.944;2022-09-30T03:01:06;2.90;99.90
16247;DHT22;8231;50.866;7.944;2022-09-30T03:03:38;2.90;99.90
16247;DHT22;8231;50.866;7.944;2022-09-30T03:06:10;2.90;99.90
16247;DHT22;8231;50.866;7.944;2022-09-30T03:08:38;2.80;99.90
16247;DHT22;8231;50.866;7.944;2022-09-30T03:11:09;2.80;99.90
16247;DHT22;8231;50.866;7.944;2022-09-30T03:14:02;2.70;99.90
16247;DHT22;8231;50.866;7.944;2022-09-30T03:16:48;2.70;99.90
16247;DHT22;8231;50.866;7.944;2022-09-30T03:19:31;2.60;99.90
16247;DHT22;8231;50.866;7.944;2022-09-30T03:22:18;2.60;99.90
16247;DHT22;8231;50.866;7.944;2022-09-30T03:25:05;2.50;99.90
16247;DHT22;8231;50.866;7.944;2022-09-30T03:27:41;2.50;99.90
16247;DHT22;8231;50.866;7.944;2022-09-30T03:30:14;2.40;99.90
16247;DHT22;8231;50.866;7.944;2022-09-30T03:33:02;2.40;99.90
16247;DHT22;8231;50.866;7.944;2022-09-30T03:35:43;2.40;99.90
16247;DHT22;8231;50.866;7.944;2022-09-30T03:38:24;2.30;99.90
16247;DHT22;8231;50.866;7.944;2022-09-30T03:40:59;2.30;99.90
16247;DHT22;8231;50.866;7.944;2022-09-30T03:43:32;2.30;99.90
16247;DHT22;8231;50.866;7.944;2022-09-30T03:46:06;2.30;99.90
16247;DHT22;8231;50.866;7.944;2022-09-30T03:48:38;2.20;99.90
16247;DHT22;8231;50.866;7.944;2022-09-30T03:51:08;2.20;99.90
16247;DHT22;8231;50.866;7.944;2022-09-30T03:53:39;2.20;99.90
16247;DHT22;8231;50.866;7.944;2022-09-30T03:56:08;2.30;99.90
16247;DHT22;8231;50.866;7.944;2022-09-30T03:58:39;2.30;99.90
16247;DHT22;8231;50.866;7.944;2022-09-30T04:01:16;2.30;99.90
16247;DHT22;8231;50.866;7.944;2022-09-30T04:03:46;2.30;99.90
16247;DHT22;8231;50.866;7.944;2022-09-30T04:06:14;2.20;99.90
16247;DHT22;8231;50.866;7.944;2022-09-30T04:08:43;2.10;99.90
16247;DHT22;8231;50.866;7.944;2022-09-30T04:11:11;2.10;99.90
16247;DHT22;8231;50.866;7.944;2022-09-30T04:13:39;2.10;99.90
16247;DHT22;8231;50.866;7.944;2022-09-30T04:16:08;2.10;99.90
16247;DHT22;8231;50.866;7.944;2022-09-30T04:18:37;2.10;99.90
16247;DHT22;8231;50.866;7.944;2022-09-30T04:21:06;2.10;99.90
16247;DHT22;8231;50.866;7.944;2022-09-30T04:23:35;2.10;99.90
16247;DHT22;8231;50.866;7.944;2022-09-30T04:26:06;2.10;99.90
16247;DHT22;8231;50.866;7.944;2022-09-30T04:28:35;2.20;99.90
16247;DHT22;8231;50.866;7.944;2022-09-30T04:31:04;2.20;99.90
16247;DHT22;8231;50.866;7.944;2022-09-30T04:33:33;2.20;99.90
16247;DHT22;8231;50.866;7.944;2022-09-30T04:36:01;2.20;99.90
16247;DHT22;8231;50.866;7.944;2022-09-30T04:38:29;2.20;99.90
16247;DHT22;8231;50.866;7.944;2022-09-30T04:41:01;2.20;99.90
16247;DHT22;8231;50.866;7.944;2022-09-30T04:43:32;2.20;99.90
16247;DHT22;8231;50.866;7.944;2022-09-30T04:46:01;2.20;99.90
16247;DHT22;8231;50.866;7.944;2022-09-30T04:48:30;2.20;99.90
16247;DHT22;8231;50.866;7.944;2022-09-30T04:50:58;2.10;99.90
16247;DHT22;8231;50.866;7.944;2022-09-30T04:53:27;2.10;99.90
16247;DHT22;8231;50.866;7.944;2022-09-30T04:55:59;2.00;99.90
16247;DHT22;8231;50.866;7.944;2022-09-30T04:58:27;1.90;99.90
16247;DHT22;8231;50.866;7.944;2022-09-30T05:01:05;1.90;99.90
16247;DHT22;8231;50.866;7.944;2022-09-30T05:03:34;1.80;99.90
16247;DHT22;8231;50.866;7.944;2022-09-30T05:06:03;1.80;99.90
16247;DHT22;8231;50.866;7.944;2022-09-30T05:08:32;1.90;99.90
16247;DHT22;8231;50.866;7.944;2022-09-30T05:11:04;1.80;99.90
16247;DHT22;8231;50.866;7.944;2022-09-30T05:13:37;1.80;99.90
16247;DHT22;8231;50.866;7.944;2022-09-30T05:16:08;1.80;99.90
16247;DHT22;8231;50.866;7.944;2022-09-30T05:18:37;1.80;99.90
16247;DHT22;8231;50.866;7.944;2022-09-30T05:21:07;1.80;99.90
16247;DHT22;8231;50.866;7.944;2022-09-30T05:23:35;1.90;99.90
16247;DHT22;8231;50.866;7.944;2022-09-30T05:26:03;1.90;99.90
16247;DHT22;8231;50.866;7.944;2022-09-30T05:28:38;1.90;99.90
16247;DHT22;8231;50.866;7.944;2022-09-30T05:31:07;1.90;99.90
16247;DHT22;8231;50.866;7.944;2022-09-30T05:33:36;2.00;99.90
16247;DHT22;8231;50.866;7.944;2022-09-30T05:36:05;2.00;99.90
16247;DHT22;8231;50.866;7.944;2022-09-30T05:38:34;2.00;99.90
16247;DHT22;8231;50.866;7.944;2022-09-30T05:41:06;2.10;99.90
16247;DHT22;8231;50.866;7.944;2022-09-30T05:43:37;2.10;99.90
16247;DHT22;8231;50.866;7.944;2022-09-30T05:46:07;2.00;99.90
16247;DHT22;8231;50.866;7.944;2022-09-30T05:48:35;2.10;99.90
16247;DHT22;8231;50.866;7.944;2022-09-30T05:51:03;2.10;99.90
16247;DHT22;8231;50.866;7.944;2022-09-30T05:53:31;2.10;99.90
16247;DHT22;8231;50.866;7.944;2022-09-30T05:56:01;2.10;99.90
16247;DHT22;8231;50.866;7.944;2022-09-30T05:58:30;2.10;99.90
16247;DHT22;8231;50.866;7.944;2022-09-30T06:01:03;2.10;99.90
16247;DHT22;8231;50.866;7.944;2022-09-30T06:03:40;2.10;99.90
16247;DHT22;8231;50.866;7.944;2022-09-30T06:06:08;2.00;99.90
16247;DHT22;8231;50.866;7.944;2022-09-30T06:08:36;2.00;99.90
16247;DHT22;8231;50.866;7.944;2022-09-30T06:11:09;2.10;99.90
16247;DHT22;8231;50.866;7.944;2022-09-30T06:13:39;2.20;99.90
16247;DHT22;8231;50.866;7.944;2022-09-30T06:16:09;2.20;99.90
16247;DHT22;8231;50.866;7.944;2022-09-30T06:18:39;2.30;99.90
16247;DHT22;8231;50.866;7.944;2022-09-30T06:21:09;2.20;99.90
16247;DHT22;8231;50.866;7.944;2022-09-30T06:23:38;2.30;99.90
16247;DHT22;8231;50.866;7.944;2022-09-30T06:26:07;2.40;99.90
16247;DHT22;8231;50.866;7.944;2022-09-30T06:28:35;2.50;99.90
16247;DHT22;8231;50.866;7.944;2022-09-30T06:31:04;2.60;99.90
16247;DHT22;8231;50.866;7.944;2022-09-30T06:33:32;2.70;99.90
16247;DHT22;8231;50.866;7.944;2022-09-30T06:36:02;2.80;99.90
16247;DHT22;8231;50.866;7.944;2022-09-30T06:38:32;2.80;99.90
16247;DHT22;8231;50.866;7.944;2022-09-30T06:41:03;2.70;99.90
16247;DHT22;8231;50.866;7.944;2022-09-30T06:43:31;2.70;99.90
16247;DHT22;8231;50.866;7.944;2022-09-30T06:46:19;2.80;99.90
16247;DHT22;8231;50.866;7.944;2022-09-30T06:48:57;2.90;99.90
16247;DHT22;8231;50.866;7.944;2022-09-30T06:51:41;3.00;99.90
16247;DHT22;8231;50.866;7.944;2022-09-30T06:54:09;3.00;99.90
16247;DHT22;8231;50.866;7.944;2022-09-30T06:56:38;3.00;99.90
16247;DHT22;8231;50.866;7.944;2022-09-30T06:59:06;3.00;99.90
16247;DHT22;8231;50.866;7.944;2022-09-30T07:01:34;3.00;99.90
16247;DHT22;8231;50.866;7.944;2022-09-30T07:04:02;3.20;99.90
16247;DHT22;8231;50.866;7.944;2022-09-30T07:06:36;3.20;99.90
16247;DHT22;8231;50.866;7.944;2022-09-30T07:09:07;3.30;99.90
16247;DHT22;8231;50.866;7.944;2022-09-30T07:11:36;3.40;99.90
16247;DHT22;8231;50.866;7.944;2022-09-30T07:14:05;3.60;99.90
16247;DHT22;8231;50.866;7.944;2022-09-30T07:16:34;3.70;99.90
16247;DHT22;8231;50.866;7.944;2022-09-30T07:19:03;3.80;99.90
16247;DHT22;8231;50.866;7.944;2022-09-30T07:21:32;3.80;99.90
16247;DHT22;8231;50.866;7.944;2022-09-30T07:24:01;3.90;99.90
16247;DHT22;8231;50.866;7.944;2022-09-30T07:26:30;3.90;99.90
16247;DHT22;8231;50.866;7.944;2022-09-30T07:28:58;3.90;99.90
16247;DHT22;8231;50.866;7.944;2022-09-30T07:31:27;4.10;99.90
16247;DHT22;8231;50.866;7.944;2022-09-30T07:34:02;4.30;99.90
16247;DHT22;8231;50.866;7.944;2022-09-30T07:36:33;4.50;99.90
16247;DHT22;8231;50.866;7.944;2022-09-30T07:39:04;4.60;99.90
16247;DHT22;8231;50.866;7.944;2022-09-30T07:41:36;4.90;99.90
16247;DHT22;8231;50.866;7.944;2022-09-30T07:44:07;5.20;99.90
16247;DHT22;8231;50.866;7.944;2022-09-30T07:46:38;5.60;99.90
16247;DHT22;8231;50.866;7.944;2022-09-30T07:49:07;6.20;99.90
16247;DHT22;8231;50.866;7.944;2022-09-30T07:51:40;6.70;99.90
16247;DHT22;8231;50.866;7.944;2022-09-30T07:54:13;7.50;99.90
16247;DHT22;8231;50.866;7.944;2022-09-30T07:56:44;8.40;99.90
16247;DHT22;8231;50.866;7.944;2022-09-30T07:59:35;8.90;99.90
16247;DHT22;8231;50.866;7.944;2022-09-30T08:02:05;9.50;99.90
16247;DHT22;8231;50.866;7.944;2022-09-30T08:04:33;10.20;99.90
16247;DHT22;8231;50.866;7.944;2022-09-30T08:07:07;10.80;99.90
16247;DHT22;8231;50.866;7.944;2022-09-30T08:09:35;11.40;99.90
16247;DHT22;8231;50.866;7.944;2022-09-30T08:12:05;11.90;99.90
16247;DHT22;8231;50.866;7.944;2022-09-30T08:14:33;12.30;99.90
16247;DHT22;8231;50.866;7.944;2022-09-30T08:17:01;12.60;99.90
16247;DHT22;8231;50.866;7.944;2022-09-30T08:19:30;12.80;99.90
16247;DHT22;8231;50.866;7.944;2022-09-30T08:22:00;12.70;99.90
16247;DHT22;8231;50.866;7.944;2022-09-30T08:24:34;12.70;99.90
16247;DHT22;8231;50.866;7.944;2022-09-30T08:27:02;12.40;99.90
16247;DHT22;8231;50.866;7.944;2022-09-30T08:29:32;11.70;99.90
16247;DHT22;8231;50.866;7.944;2022-09-30T08:32:20;11.40;99.90
16247;DHT22;8231;50.866;7.944;2022-09-30T08:34:48;11.10;99.90
16247;DHT22;8231;50.866;7.944;2022-09-30T08:37:17;11.00;99.90
16247;DHT22;8231;50.866;7.944;2022-09-30T08:39:52;10.60;99.90
16247;DHT22;8231;50.866;7.944;2022-09-30T08:42:33;10.50;99.90
16247;DHT22;8231;50.866;7.944;2022-09-30T08:45:19;10.50;99.90
16247;DHT22;8231;50.866;7.944;2022-09-30T08:47:55;10.50;99.90
16247;DHT22;8231;50.866;7.944;2022-09-30T08:50:31;10.60;99.90
16247;DHT22;8231;50.866;7.944;2022-09-30T08:53:04;10.70;99.90
16247;DHT22;8231;50.866;7.944;2022-09-30T08:55:40;11.00;99.90
16247;DHT22;8231;50.866;7.944;2022-09-30T08:58:15;11.30;99.90
16247;DHT22;8231;50.866;7.944;2022-09-30T09:00:53;11.70;99.90
16247;DHT22;8231;50.866;7.944;2022-09-30T09:03:26;12.20;99.90
16247;DHT22;8231;50.866;7.944;2022-09-30T09:06:03;12.60;99.90
16247;DHT22;8231;50.866;7.944;2022-09-30T09:08:44;13.10;99.90
16247;DHT22;8231;50.866;7.944;2022-09-30T09:11:21;13.30;99.90
16247;DHT22;8231;50.866;7.944;2022-09-30T09:13:55;13.60;99.90
16247;DHT22;8231;50.866;7.944;2022-09-30T09:16:30;13.60;99.90
16247;DHT22;8231;50.866;7.944;2022-09-30T09:19:06;13.80;99.90
16247;DHT22;8231;50.866;7.944;2022-09-30T09:21:49;14.10;99.90
16247;DHT22;8231;50.866;7.944;2022-09-30T09:24:20;14.10;99.90
16247;DHT22;8231;50.866;7.944;2022-09-30T09:26:51;14.20;99.90
16247;DHT22;8231;50.866;7.944;2022-09-30T09:29:31;14.50;99.90
16247;DHT22;8231;50.866;7.944;2022-09-30T09:32:12;14.70;99.90
16247;DHT22;8231;50.866;7.944;2022-09-30T09:34:40;15.00;99.90
16247;DHT22;8231;50.866;7.944;2022-09-30T09:37:16;15.10;99.90
16247;DHT22;8231;50.866;7.944;2022-09-30T09:40:02;15.20;99.90
16247;DHT22;8231;50.866;7.944;2022-09-30T09:42:52;15.40;99.90
16247;DHT22;8231;50.866;7.944;2022-09-30T09:45:27;15.60;99.90
16247;DHT22;8231;50.866;7.944;2022-09-30T09:47:57;15.60;99.90
16247;DHT22;8231;50.866;7.944;2022-09-30T09:50:33;15.70;99.90
16247;DHT22;8231;50.866;7.944;2022-09-30T09:53:14;16.00;99.90
16247;DHT22;8231;50.866;7.944;2022-09-30T09:55:43;15.90;99.90
16247;DHT22;8231;50.866;7.944;2022-09-30T09:58:13;16.10;99.90
16247;DHT22;8231;50.866;7.944;2022-09-30T10:00:43;16.10;99.90
16247;DHT22;8231;50.866;7.944;2022-09-30T10:03:42;16.30;99.90
16247;DHT22;8231;50.866;7.944;2022-09-30T10:06:11;16.30;99.90
16247;DHT22;8231;50.866;7.944;2022-09-30T10:08:52;16.30;99.90
16247;DHT22;8231;50.866;7.944;2022-09-30T10:11:23;16.50;99.90
16247;DHT22;8231;50.866;7.944;2022-09-30T10:13:57;16.50;99.90
16247;DHT22;8231;50.866;7.944;2022-09-30T10:16:29;16.70;99.90
16247;DHT22;8231;50.866;7.944;2022-09-30T10:18:59;16.70;99.90
16247;DHT22;8231;50.866;7.944;2022-09-30T10:21:35;16.70;99.90
16247;DHT22;8231;50.866;7.944;2022-09-30T10:24:18;16.70;99.90
16247;DHT22;8231;50.866;7.944;2022-09-30T10:26:46;16.90;99.90
16247;DHT22;8231;50.866;7.944;2022-09-30T10:29:25;17.20;99.90
16247;DHT22;8231;50.866;7.944;2022-09-30T10:31:54;17.20;99.90
16247;DHT22;8231;50.866;7.944;2022-09-30T10:34:29;17.10;99.90
16247;DHT22;8231;50.866;7.944;2022-09-30T10:37:01;17.10;99.90
16247;DHT22;8231;50.866;7.944;2022-09-30T10:39:35;17.10;99.90
16247;DHT22;8231;50.866;7.944;2022-09-30T10:42:06;17.20;99.90
16247;DHT22;8231;50.866;7.944;2022-09-30T10:44:41;17.30;99.90
16247;DHT22;8231;50.866;7.944;2022-09-30T10:47:13;17.50;99.90
16247;DHT22;8231;50.866;7.944;2022-09-30T10:49:46;17.50;99.90
16247;DHT22;8231;50.866;7.944;2022-09-30T10:52:18;17.60;99.90
16247;DHT22;8231;50.866;7.944;2022-09-30T10:54:49;17.80;99.90
16247;DHT22;8231;50.866;7.944;2022-09-30T10:57:20;17.70;99.90
16247;DHT22;8231;50.866;7.944;2022-09-30T10:59:52;17.70;99.90
16247;DHT22;8231;50.866;7.944;2022-09-30T11:02:25;17.80;99.90
16247;DHT22;8231;50.866;7.944;2022-09-30T11:05:02;17.70;99.90
16247;DHT22;8231;50.866;7.944;2022-09-30T11:07:36;17.90;99.90
16247;DHT22;8231;50.866;7.944;2022-09-30T11:10:20;17.90;99.90
16247;DHT22;8231;50.866;7.944;2022-09-30T11:12:52;18.10;99.90
16247;DHT22;8231;50.866;7.944;2022-09-30T11:15:24;17.90;99.90
16247;DHT22;8231;50.866;7.944;2022-09-30T11:17:59;18.10;99.90
16247;DHT22;8231;50.866;7.944;2022-09-30T11:20:31;18.00;99.90
16247;DHT22;8231;50.866;7.944;2022-09-30T11:23:05;18.20;99.90
16247;DHT22;8231;50.866;7.944;2022-09-30T11:25:44;18.50;99.70
16247;DHT22;8231;50.866;7.944;2022-09-30T11:28:32;18.90;99.90
16247;DHT22;8231;50.866;7.944;2022-09-30T11:31:10;19.00;98.00
16247;DHT22;8231;50.866;7.944;2022-09-30T11:33:49;19.10;99.20
16247;DHT22;8231;50.866;7.944;2022-09-30T11:36:27;19.10;99.10
16247;DHT22;8231;50.866;7.944;2022-09-30T11:39:19;19.60;98.70
16247;DHT22;8231;50.866;7.944;2022-09-30T11:41:57;20.30;96.90
16247;DHT22;8231;50.866;7.944;2022-09-30T11:44:32;20.80;97.40
16247;DHT22;8231;50.866;7.944;2022-09-30T11:47:17;21.60;96.10
16247;DHT22;8231;50.866;7.944;2022-09-30T11:50:03;21.80;91.80
16247;DHT22;8231;50.866;7.944;2022-09-30T11:52:41;22.10;92.60
16247;DHT22;8231;50.866;7.944;2022-09-30T11:55:26;22.70;93.00
16247;DHT22;8231;50.866;7.944;2022-09-30T11:58:00;23.40;85.60
16247;DHT22;8231;50.866;7.944;2022-09-30T12:00:57;23.20;86.80
16247;DHT22;8231;50.866;7.944;2022-09-30T12:03:32;23.40;85.80
16247;DHT22;8231;50.866;7.944;2022-09-30T12:06:04;24.00;87.10
16247;DHT22;8231;50.866;7.944;2022-09-30T12:08:41;24.80;82.40
16247;DHT22;8231;50.866;7.944;2022-09-30T12:11:16;25.60;76.00
16247;DHT22;8231;50.866;7.944;2022-09-30T12:13:49;26.20;71.50
16247;DHT22;8231;50.866;7.944;2022-09-30T12:16:22;26.10;66.40
16247;DHT22;8231;50.866;7.944;2022-09-30T12:18:54;25.90;62.20
16247;DHT22;8231;50.866;7.944;2022-09-30T12:21:27;26.50;63.60
16247;DHT22;8231;50.866;7.944;2022-09-30T12:24:03;27.00;61.00
16247;DHT22;8231;50.866;7.944;2022-09-30T12:26:36;27.70;57.20
16247;DHT22;8231;50.866;7.944;2022-09-30T12:29:07;27.90;55.70
16247;DHT22;8231;50.866;7.944;2022-09-30T12:32:13;28.60;53.30
16247;DHT22;8231;50.866;7.944;2022-09-30T12:34:55;28.20;49.20
16247;DHT22;8231;50.866;7.944;2022-09-30T12:37:45;29.00;50.10
16247;DHT22;8231;50.866;7.944;2022-09-30T12:40:29;30.20;48.90
16247;DHT22;8231;50.866;7.944;2022-09-30T12:46:17;29.40;47.00
16247;DHT22;8231;50.866;7.944;2022-09-30T12:48:49;27.70;47.90
16247;DHT22;8231;50.866;7.944;2022-09-30T12:51:24;27.60;49.10
16247;DHT22;8231;50.866;7.944;2022-09-30T12:53:58;28.60;47.50
16247;DHT22;8231;50.866;7.944;2022-09-30T12:56:31;29.00;43.10
16247;DHT22;8231;50.866;7.944;2022-09-30T12:59:03;30.80;42.70
16247;DHT22;8231;50.866;7.944;2022-09-30T13:01:35;32.10;42.00
16247;DHT22;8231;50.866;7.944;2022-09-30T13:04:29;32.20;39.20
16247;DHT22;8231;50.866;7.944;2022-09-30T13:07:20;33.20;34.80
16247;DHT22;8231;50.866;7.944;2022-09-30T13:10:00;30.10;39.40
16247;DHT22;8231;50.866;7.944;2022-09-30T13:12:40;27.80;44.90
16247;DHT22;8231;50.866;7.944;2022-09-30T13:15:41;27.40;44.40
16247;DHT22;8231;50.866;7.944;2022-09-30T13:21:25;32.70;35.70
16247;DHT22;8231;50.866;7.944;2022-09-30T13:23:58;33.10;35.90
16247;DHT22;8231;50.866;7.944;2022-09-30T13:26:43;32.60;35.30
16247;DHT22;8231;50.866;7.944;2022-09-30T13:29:35;30.90;37.10
16247;DHT22;8231;50.866;7.944;2022-09-30T13:32:06;28.40;40.90
16247;DHT22;8231;50.866;7.944;2022-09-30T13:34:53;26.50;42.70
16247;DHT22;8231;50.866;7.944;2022-09-30T13:37:38;25.70;45.80
16247;DHT22;8231;50.866;7.944;2022-09-30T13:40:21;25.30;49.90
16247;DHT22;8231;50.866;7.944;2022-09-30T13:43:17;28.00;44.70
16247;DHT22;8231;50.866;7.944;2022-09-30T13:45:48;30.70;40.20
16247;DHT22;8231;50.866;7.944;2022-09-30T13:48:21;33.00;39.10
16247;DHT22;8231;50.866;7.944;2022-09-30T13:50:52;34.10;32.40
16247;DHT22;8231;50.866;7.944;2022-09-30T13:53:26;34.70;32.80
16247;DHT22;8231;50.866;7.944;2022-09-30T13:55:56;35.00;31.80
16247;DHT22;8231;50.866;7.944;2022-09-30T13:58:56;33.40;33.00
16247;DHT22;8231;50.866;7.944;2022-09-30T14:01:48;33.90;32.40
16247;DHT22;8231;50.866;7.944;2022-09-30T14:04:38;34.20;31.90
16247;DHT22;8231;50.866;7.944;2022-09-30T14:07:16;33.10;31.60
16247;DHT22;8231;50.866;7.944;2022-09-30T14:09:59;31.10;34.10
16247;DHT22;8231;50.866;7.944;2022-09-30T14:12:48;28.50;37.00
16247;DHT22;8231;50.866;7.944;2022-09-30T14:15:38;26.50;41.80
16247;DHT22;8231;50.866;7.944;2022-09-30T14:18:28;24.80;43.60
16247;DHT22;8231;50.866;7.944;2022-09-30T14:21:21;23.30;47.20
16247;DHT22;8231;50.866;7.944;2022-09-30T14:24:00;22.40;48.50
16247;DHT22;8231;50.866;7.944;2022-09-30T14:29:47;21.40;52.10
16247;DHT22;8231;50.866;7.944;2022-09-30T14:32:19;21.00;50.60
16247;DHT22;8231;50.866;7.944;2022-09-30T14:34:49;20.50;53.00
16247;DHT22;8231;50.866;7.944;2022-09-30T14:37:22;20.30;52.10
16247;DHT22;8231;50.866;7.944;2022-09-30T14:39:51;19.90;52.60
16247;DHT22;8231;50.866;7.944;2022-09-30T14:42:24;19.70;53.60
16247;DHT22;8231;50.866;7.944;2022-09-30T14:44:56;19.50;55.30
16247;DHT22;8231;50.866;7.944;2022-09-30T14:47:32;19.40;55.10
16247;DHT22;8231;50.866;7.944;2022-09-30T14:50:28;19.00;53.80
16247;DHT22;8231;50.866;7.944;2022-09-30T14:52:58;18.90;56.40
16247;DHT22;8231;50.866;7.944;2022-09-30T14:55:30;18.80;54.90
16247;DHT22;8231;50.866;7.944;2022-09-30T14:58:20;18.70;56.50
16247;DHT22;8231;50.866;7.944;2022-09-30T15:00:56;18.60;55.60
16247;DHT22;8231;50.866;7.944;2022-09-30T15:03:26;18.50;56.70
16247;DHT22;8231;50.866;7.944;2022-09-30T15:05:56;18.40;56.70
16247;DHT22;8231;50.866;7.944;2022-09-30T15:08:25;18.20;59.80
16247;DHT22;8231;50.866;7.944;2022-09-30T15:10:54;17.90;57.60
16247;DHT22;8231;50.866;7.944;2022-09-30T15:13:24;17.90;59.30
16247;DHT22;8231;50.866;7.944;2022-09-30T15:15:53;17.70;59.80
16247;DHT22;8231;50.866;7.944;2022-09-30T15:18:32;17.60;58.80
16247;DHT22;8231;50.866;7.944;2022-09-30T15:21:10;17.50;60.10
16247;DHT22;8231;50.866;7.944;2022-09-30T15:23:40;17.40;61.60
16247;DHT22;8231;50.866;7.944;2022-09-30T15:26:11;17.30;61.30
16247;DHT22;8231;50.866;7.944;2022-09-30T15:28:39;17.10;62.70
16247;DHT22;8231;50.866;7.944;2022-09-30T15:31:18;17.10;63.10
16247;DHT22;8231;50.866;7.944;2022-09-30T15:33:48;17.00;62.60
16247;DHT22;8231;50.866;7.944;2022-09-30T15:36:17;16.80;63.40
16247;DHT22;8231;50.866;7.944;2022-09-30T15:38:48;16.70;64.40
16247;DHT22;8231;50.866;7.944;2022-09-30T15:41:17;16.60;66.50
16247;DHT22;8231;50.866;7.944;2022-09-30T15:43:47;16.40;63.90
16247;DHT22;8231;50.866;7.944;2022-09-30T15:46:28;16.30;65.10
16247;DHT22;8231;50.866;7.944;2022-09-30T15:48:59;16.20;63.80
16247;DHT22;8231;50.866;7.944;2022-09-30T15:51:35;16.00;64.40
16247;DHT22;8231;50.866;7.944;2022-09-30T15:54:27;16.00;65.50
16247;DHT22;8231;50.866;7.944;2022-09-30T15:57:00;16.00;66.30
16247;DHT22;8231;50.866;7.944;2022-09-30T15:59:55;15.80;67.20
16247;DHT22;8231;50.866;7.944;2022-09-30T16:02:24;15.70;69.40
16247;DHT22;8231;50.866;7.944;2022-09-30T16:04:52;15.60;68.80
16247;DHT22;8231;50.866;7.944;2022-09-30T16:07:22;15.50;69.30
16247;DHT22;8231;50.866;7.944;2022-09-30T16:09:55;15.50;72.10
16247;DHT22;8231;50.866;7.944;2022-09-30T16:12:28;15.20;71.70
16247;DHT22;8231;50.866;7.944;2022-09-30T16:14:58;15.00;75.40
16247;DHT22;8231;50.866;7.944;2022-09-30T16:17:29;14.90;76.80
16247;DHT22;8231;50.866;7.944;2022-09-30T16:19:59;14.60;79.00
16247;DHT22;8231;50.866;7.944;2022-09-30T16:22:51;14.40;81.20
16247;DHT22;8231;50.866;7.944;2022-09-30T16:25:22;14.10;84.40
16247;DHT22;8231;50.866;7.944;2022-09-30T16:27:57;13.80;87.80
16247;DHT22;8231;50.866;7.944;2022-09-30T16:30:27;13.50;91.10
16247;DHT22;8231;50.866;7.944;2022-09-30T16:33:02;13.30;94.40
16247;DHT22;8231;50.866;7.944;2022-09-30T16:35:31;13.10;97.80
16247;DHT22;8231;50.866;7.944;2022-09-30T16:38:01;13.00;99.40
16247;DHT22;8231;50.866;7.944;2022-09-30T16:40:31;12.80;99.90
16247;DHT22;8231;50.866;7.944;2022-09-30T16:43:01;12.60;99.90
16247;DHT22;8231;50.866;7.944;2022-09-30T16:45:33;12.50;99.90
16247;DHT22;8231;50.866;7.944;2022-09-30T16:48:08;12.30;99.90
16247;DHT22;8231;50.866;7.944;2022-09-30T16:50:40;12.10;99.90
16247;DHT22;8231;50.866;7.944;2022-09-30T16:53:11;12.00;99.90
16247;DHT22;8231;50.866;7.944;2022-09-30T16:55:39;11.80;99.90